Covelo, California
Current Conditions -  °F | °C
As of 1:21 PM on Thursday 18 Dec 2014 (Local Time) from KUKI Reporting Station
Overcast Overcast  
Wind Chill: 55°   Ceiling: 4100
Heat Index: 55°   Visibility: 10mi
Dew Point: 49°   Wind: 6mph
Humidity: 80%   Direction: 160°SSE
Pressure: 30.13"   Gusts: NA
Location:  39.79°N, 123.25°W
Report Text: KUKI 182121Z AUTO 16005KT 10SM FEW016 SCT022 OVC041 13/09 A3013 RMK AO2 T01280094
Loading
Personal Weather Stations






























Interactive Weather Map New forecast layout! Learn more

10-Day Weather Forecast

Advertisements
Track Severe Weather on mobile